createdAt,value
2019-02-27T00:02:56.662Z,19.30
2019-02-27T00:06:14.966Z,19.17
2019-02-27T00:09:26.484Z,17.23
2019-02-27T00:12:40.330Z,16.93
2019-02-27T00:15:54.180Z,16.83
2019-02-27T00:19:08.009Z,18.43
2019-02-27T00:22:25.126Z,15.63
2019-02-27T00:25:39.036Z,19.50
2019-02-27T00:28:55.976Z,15.37
2019-02-27T00:32:08.677Z,14.93
2019-02-27T00:35:22.493Z,13.87
2019-02-27T00:38:36.351Z,15.60
2019-02-27T00:41:50.215Z,15.93
2019-02-27T00:45:09.560Z,15.60
2019-02-27T00:48:26.003Z,16.10
2019-02-27T00:51:39.159Z,16.23
2019-02-27T00:54:52.971Z,16.30
2019-02-27T00:58:06.818Z,15.23
2019-02-27T01:01:20.656Z,15.27
2019-02-27T01:04:35.109Z,15.83
2019-02-27T01:07:53.853Z,14.67
2019-02-27T01:11:05.384Z,15.27
2019-02-27T01:14:19.329Z,17.07
2019-02-27T01:17:33.476Z,17.23
2019-02-27T01:20:47.416Z,19.57
2019-02-27T01:24:01.264Z,14.67
2019-02-27T01:27:15.072Z,16.60
2019-02-27T01:30:28.908Z,14.03
2019-02-27T01:33:42.882Z,15.23
2019-02-27T01:36:58.081Z,15.43
2019-02-27T01:40:17.528Z,16.93
2019-02-27T01:43:29.957Z,14.03
2019-02-27T01:46:43.815Z,16.30
2019-02-27T01:49:57.675Z,16.10
2019-02-27T01:53:11.520Z,19.00
2019-02-27T01:56:28.932Z,17.63
2019-02-27T01:59:41.083Z,16.17
2019-02-27T02:02:55.240Z,17.40
2019-02-27T02:06:09.076Z,14.70
2019-02-27T02:09:31.204Z,15.03
2019-02-27T02:12:51.531Z,13.37
2019-02-27T02:16:12.267Z,17.03
2019-02-27T02:19:35.877Z,16.63
2019-02-27T02:23:08.683Z,18.07
2019-02-27T02:26:44.374Z,12.53
2019-02-27T02:30:13.932Z,13.37
2019-02-27T02:34:06.236Z,13.27
2019-02-27T02:37:47.294Z,14.13
2019-02-27T02:41:10.976Z,14.77
2019-02-27T02:44:43.923Z,15.67
2019-02-27T02:48:22.629Z,16.83
2019-02-27T02:51:49.326Z,16.87
2019-02-27T02:55:24.717Z,14.10
2019-02-27T02:58:54.580Z,18.40
2019-02-27T03:02:23.472Z,18.30
2019-02-27T03:05:43.450Z,18.80
2019-02-27T03:09:06.867Z,19.87
2019-02-27T03:12:30.955Z,19.60
2019-02-27T03:15:46.819Z,17.93
2019-02-27T03:19:10.436Z,16.07
2019-02-27T03:22:40.187Z,18.00
2019-02-27T03:25:56.167Z,16.27
2019-02-27T03:29:17.349Z,21.07
2019-02-27T03:32:50.371Z,16.43
2019-02-27T03:36:25.721Z,15.67
2019-02-27T03:40:02.729Z,16.50
2019-02-27T03:43:45.962Z,18.87
2019-02-27T03:47:27.107Z,17.27
2019-02-27T03:50:56.962Z,15.70
2019-02-27T03:54:20.932Z,14.77
2019-02-27T03:57:56.038Z,21.50
2019-02-27T04:01:31.418Z,18.03
2019-02-27T04:05:14.939Z,15.47
2019-02-27T04:08:55.885Z,13.37
2019-02-27T04:12:09.901Z,16.07
2019-02-27T04:15:23.853Z,13.57
2019-02-27T04:18:37.459Z,15.43
2019-02-27T04:21:51.317Z,15.50
2019-02-27T04:25:06.973Z,17.07
2019-02-27T04:28:20.790Z,15.60
2019-02-27T04:31:34.759Z,16.37
2019-02-27T04:34:48.580Z,13.63
2019-02-27T04:38:02.481Z,18.07
2019-02-27T04:41:18.141Z,17.73
2019-02-27T04:44:32.051Z,14.53
2019-02-27T04:47:45.904Z,18.17
2019-02-27T04:51:00.007Z,15.60
2019-02-27T04:54:14.156Z,14.77
2019-02-27T04:57:28.000Z,17.33
2019-02-27T05:00:41.810Z,16.83
2019-02-27T05:03:55.652Z,17.03
2019-02-27T05:07:09.503Z,16.57
2019-02-27T05:10:23.356Z,13.60
2019-02-27T05:13:37.210Z,16.87
2019-02-27T05:16:51.046Z,20.27
2019-02-27T05:20:11.658Z,16.60
2019-02-27T05:23:22.856Z,16.47
2019-02-27T05:26:36.691Z,17.03
2019-02-27T05:29:50.531Z,21.30
2019-02-27T05:33:04.407Z,21.00
2019-02-27T05:36:18.246Z,17.80
2019-02-27T05:39:33.801Z,21.27
2019-02-27T05:42:47.839Z,23.40
2019-02-27T05:46:03.162Z,23.87
2019-02-27T05:49:17.409Z,21.23
2019-02-27T05:52:31.231Z,21.00
2019-02-27T05:55:45.099Z,20.60
2019-02-27T05:58:58.924Z,16.40
2019-02-27T06:02:12.746Z,16.40
2019-02-27T06:05:26.600Z,16.10
2019-02-27T06:08:40.490Z,19.03
2019-02-27T06:11:54.339Z,23.93
2019-02-27T06:15:12.004Z,16.40
2019-02-27T06:18:25.832Z,26.47
2019-02-27T06:21:39.714Z,21.43
2019-02-27T06:24:53.548Z,23.13
2019-02-27T06:28:07.388Z,22.53
2019-02-27T06:31:21.285Z,20.07
2019-02-27T06:34:35.103Z,18.07
2019-02-27T06:37:50.726Z,18.53
2019-02-27T06:41:04.813Z,14.20
2019-02-27T06:44:19.158Z,15.80
2019-02-27T06:47:35.563Z,18.57
2019-02-27T06:50:49.064Z,19.20
2019-02-27T06:54:02.995Z,17.97
2019-02-27T06:57:16.852Z,20.60
2019-02-27T07:00:35.762Z,18.07
2019-02-27T07:03:46.464Z,15.53
2019-02-27T07:07:00.634Z,18.17
2019-02-27T07:10:19.475Z,17.47
2019-02-27T07:13:32.119Z,22.83
2019-02-27T07:16:47.158Z,18.27
2019-02-27T07:20:00.994Z,16.77
2019-02-27T07:23:14.822Z,16.77
2019-02-27T07:26:28.673Z,17.37
2019-02-27T07:29:43.086Z,18.43
2019-02-27T07:32:57.338Z,16.63
2019-02-27T07:36:11.170Z,22.33
2019-02-27T07:39:25.029Z,28.20
2019-02-27T07:42:39.090Z,21.97
2019-02-27T07:45:54.337Z,21.83
2019-02-27T07:49:08.656Z,18.57
2019-02-27T07:52:22.523Z,20.67
2019-02-27T07:55:36.455Z,20.83
2019-02-27T07:58:50.295Z,27.13
2019-02-27T08:02:04.215Z,30.10
2019-02-27T08:05:18.186Z,23.00
2019-02-27T08:08:32.043Z,26.90
2019-02-27T08:11:47.295Z,23.53
2019-02-27T08:15:01.736Z,20.87
2019-02-27T08:18:15.579Z,21.90
2019-02-27T08:21:29.395Z,21.27
2019-02-27T08:24:43.239Z,29.37
2019-02-27T08:27:57.053Z,22.47
2019-02-27T08:31:10.917Z,24.03
2019-02-27T08:34:24.866Z,25.30
2019-02-27T08:37:38.701Z,24.87
2019-02-27T08:40:57.548Z,23.90
2019-02-27T08:44:08.298Z,24.53
2019-02-27T08:47:22.145Z,23.03
2019-02-27T08:50:35.988Z,22.77
2019-02-27T08:53:49.821Z,19.40
2019-02-27T08:57:03.679Z,20.20
2019-02-27T09:00:31.528Z,25.07
2019-02-27T09:03:45.351Z,19.50
2019-02-27T09:07:02.726Z,18.90
2019-02-27T09:10:23.329Z,22.53
2019-02-27T09:13:36.435Z,21.90
2019-02-27T09:16:50.284Z,19.83
2019-02-27T09:20:07.315Z,21.03
2019-02-27T09:23:21.176Z,19.17
2019-02-27T09:26:36.837Z,20.43
2019-02-27T09:29:54.398Z,19.63
2019-02-27T09:33:06.628Z,17.77
2019-02-27T09:36:20.500Z,16.77
2019-02-27T09:39:35.172Z,16.97
2019-02-27T09:42:50.301Z,16.70
2019-02-27T09:46:05.291Z,18.13
2019-02-27T09:49:19.136Z,20.10
2019-02-27T09:52:32.988Z,18.43
2019-02-27T09:55:46.820Z,16.93
2019-02-27T09:59:00.801Z,17.90
2019-02-27T10:02:14.632Z,17.07
2019-02-27T10:05:29.168Z,13.10
2019-02-27T10:08:43.020Z,16.37
2019-02-27T10:11:56.939Z,16.27
2019-02-27T10:15:10.894Z,16.00
2019-02-27T10:18:24.738Z,14.03
2019-02-27T10:21:38.556Z,14.50
2019-02-27T10:24:52.424Z,16.85
2019-02-27T10:28:06.284Z,14.68
2019-02-27T10:31:20.187Z,16.27
2019-02-27T10:34:34.032Z,16.30
2019-02-27T11:23:42.584Z,9.43
2019-02-27T11:26:57.015Z,14.30
2019-02-27T11:30:13.973Z,9.00
2019-02-27T11:33:32.756Z,9.38
2019-02-27T11:36:43.757Z,10.05
2019-02-27T11:39:57.598Z,9.95
2019-02-27T11:43:11.557Z,10.00
2019-02-27T11:46:25.770Z,12.00
2019-02-27T11:49:39.695Z,9.50
2019-02-27T11:52:53.538Z,9.10
2019-02-27T11:56:07.407Z,9.00
2019-02-27T11:59:21.320Z,9.28
2019-02-27T12:02:37.784Z,8.25
2019-02-27T12:05:50.975Z,10.40
2019-02-27T12:09:05.250Z,10.40
2019-02-27T12:12:22.518Z,12.05
2019-02-27T12:15:34.929Z,10.55
2019-02-27T12:18:48.788Z,10.70
2019-02-27T12:22:02.733Z,8.68
2019-02-27T12:25:18.384Z,12.88
2019-02-27T12:28:32.234Z,8.70
2019-02-27T12:31:48.405Z,9.33
2019-02-27T12:35:03.308Z,8.78
2019-02-27T12:38:17.159Z,12.68
2019-02-27T12:41:32.541Z,9.80
2019-02-27T12:44:46.941Z,9.25
2019-02-27T12:48:00.794Z,10.23
2019-02-27T12:51:14.646Z,10.08
2019-02-27T12:54:28.500Z,11.00
2019-02-27T12:57:42.423Z,13.30
2019-02-27T13:00:56.356Z,10.68
2019-02-27T13:04:10.233Z,11.20
2019-02-27T13:07:24.173Z,10.23
2019-02-27T13:10:38.053Z,8.30
2019-02-27T13:13:51.911Z,8.73
2019-02-27T13:17:05.737Z,13.00
2019-02-27T13:20:27.230Z,9.53
2019-02-27T13:23:42.369Z,9.45
2019-02-27T13:26:56.532Z,9.33
2019-02-27T13:30:13.894Z,9.08
2019-02-27T13:33:27.779Z,10.30
2019-02-27T13:36:41.755Z,9.18
2019-02-27T13:39:57.327Z,8.68
2019-02-27T13:43:11.341Z,9.20
2019-02-27T13:46:25.184Z,6.62
2019-02-27T13:49:39.047Z,6.33
2019-02-27T13:52:53.003Z,6.70
2019-02-27T13:56:06.884Z,6.53
2019-02-27T13:59:20.705Z,8.03
2019-02-27T14:02:38.266Z,8.53
2019-02-27T14:05:50.651Z,7.95
2019-02-27T14:09:07.011Z,5.97
2019-02-27T14:12:21.825Z,5.58
2019-02-27T14:15:35.664Z,5.30
2019-02-27T14:18:50.117Z,8.53
2019-02-27T14:22:07.111Z,7.08
2019-02-27T14:25:31.018Z,6.12
2019-02-27T14:28:41.745Z,7.50
2019-02-27T14:31:55.701Z,4.87
2019-02-27T14:35:09.685Z,5.03
2019-02-27T14:38:23.549Z,4.12
2019-02-27T14:41:37.397Z,4.70
2019-02-27T14:44:51.337Z,5.17
2019-02-27T14:48:05.295Z,4.42
2019-02-27T14:51:19.244Z,5.45
2019-02-27T14:54:33.089Z,6.10
2019-02-27T14:57:51.043Z,5.72
2019-02-27T15:01:05.923Z,5.78
2019-02-27T15:04:19.785Z,4.10
2019-02-27T15:07:33.636Z,4.33
2019-02-27T15:10:47.585Z,5.05
2019-02-27T15:14:01.471Z,5.42
2019-02-27T15:17:15.283Z,6.58
2019-02-27T15:20:30.106Z,3.90
2019-02-27T15:23:43.946Z,4.70
2019-02-27T15:26:57.806Z,4.65
2019-02-27T15:30:15.483Z,5.08
2019-02-27T15:33:29.448Z,3.90
2019-02-27T15:36:43.525Z,3.70
2019-02-27T15:39:57.382Z,4.50
2019-02-27T15:43:11.730Z,4.17
2019-02-27T15:46:25.906Z,5.58
2019-02-27T15:49:39.812Z,4.60
2019-02-27T15:52:54.725Z,6.15
2019-02-27T15:56:09.199Z,4.97
2019-02-27T15:59:23.072Z,4.15
2019-02-27T16:02:37.414Z,2.30
2019-02-27T16:05:51.597Z,4.15
2019-02-27T16:09:05.551Z,4.17
2019-02-27T16:12:19.966Z,5.67
2019-02-27T16:15:34.066Z,4.45
2019-02-27T16:18:49.422Z,5.00
2019-02-27T16:22:03.587Z,4.47
2019-02-27T16:25:20.468Z,6.40
2019-02-27T16:28:34.335Z,5.85
2019-02-27T16:31:48.295Z,4.28
2019-02-27T16:35:04.336Z,6.83
2019-02-27T16:38:19.553Z,7.08
2019-02-27T16:41:33.503Z,5.55
2019-02-27T16:44:47.355Z,6.33
2019-02-27T16:48:01.237Z,5.85
2019-02-27T16:51:15.599Z,3.30
2019-02-27T16:54:29.619Z,4.37
2019-02-27T16:57:43.624Z,2.83
2019-02-27T17:01:00.200Z,5.92
2019-02-27T17:04:14.099Z,5.80
2019-02-27T17:07:28.070Z,7.10
2019-02-27T17:10:41.985Z,7.60
2019-02-27T17:13:57.710Z,6.00
2019-02-27T17:17:11.663Z,5.10
2019-02-27T17:20:26.606Z,5.20
2019-02-27T17:23:43.791Z,7.17
2019-02-27T17:26:56.309Z,9.40
2019-02-27T17:30:18.936Z,22.07
2019-02-27T17:33:35.167Z,18.55
2019-02-27T17:36:48.549Z,13.65
2019-02-27T17:40:05.977Z,9.03
2019-02-27T17:43:19.826Z,8.48
2019-02-27T17:46:33.649Z,9.03
2019-02-27T17:49:47.903Z,9.98
2019-02-27T17:53:01.748Z,13.55
2019-02-27T17:56:16.262Z,10.47
2019-02-27T17:59:30.617Z,14.33
2019-02-27T18:02:44.503Z,7.67
2019-02-27T18:05:59.420Z,11.83
2019-02-27T18:09:14.353Z,8.23
2019-02-27T18:12:28.321Z,14.33
2019-02-27T18:15:42.262Z,10.83
2019-02-27T18:18:56.079Z,13.53
2019-02-27T18:22:13.969Z,12.17
2019-02-27T18:25:26.100Z,15.53
2019-02-27T18:28:40.045Z,22.10
2019-02-27T18:31:55.256Z,17.25
2019-02-27T18:35:09.186Z,12.93
2019-02-27T18:38:27.580Z,20.47
2019-02-27T18:41:46.474Z,26.93
2019-02-27T18:45:01.750Z,22.37
2019-02-27T18:48:15.651Z,18.17
2019-02-27T18:51:29.953Z,16.67
2019-02-27T18:54:45.489Z,18.97
2019-02-27T18:57:59.433Z,18.10
2019-02-27T19:01:13.822Z,16.70
2019-02-27T19:04:27.750Z,18.80
2019-02-27T19:07:41.650Z,20.63
2019-02-27T19:10:55.496Z,19.50
2019-02-27T19:14:09.483Z,22.20
2019-02-27T19:17:23.467Z,23.87
2019-02-27T19:21:00.203Z,24.43
2019-02-27T19:24:14.215Z,21.80
2019-02-27T19:27:28.214Z,23.75
2019-02-27T19:30:42.587Z,21.53
2019-02-27T19:33:56.897Z,17.03
2019-02-27T19:37:10.879Z,14.40
2019-02-27T19:40:29.915Z,21.13
2019-02-27T19:43:40.682Z,17.20
2019-02-27T19:46:54.628Z,15.00
2019-02-27T19:50:11.209Z,15.40
2019-02-27T19:53:24.496Z,14.80
2019-02-27T19:56:38.460Z,13.80
2019-02-27T19:59:52.355Z,15.87
2019-02-27T20:03:06.458Z,15.80
2019-02-27T20:06:20.389Z,17.90
2019-02-27T20:09:34.361Z,12.87
2019-02-27T20:12:52.691Z,9.87
2019-02-27T20:16:04.271Z,10.10
2019-02-27T20:19:22.300Z,10.20
2019-02-27T20:22:34.424Z,12.10
2019-02-27T20:25:48.313Z,16.33
2019-02-27T20:29:04.242Z,15.90
2019-02-27T20:32:18.200Z,18.13
2019-02-27T20:35:34.392Z,18.20
2019-02-27T20:38:50.841Z,14.13
2019-02-27T20:42:04.698Z,14.40
2019-02-27T20:45:19.976Z,13.63
2019-02-27T20:48:36.143Z,15.20
2019-02-27T20:51:49.630Z,12.63
2019-02-27T20:55:05.550Z,13.80
2019-02-27T20:58:19.446Z,15.27
2019-02-27T21:01:33.442Z,18.47
2019-02-27T21:04:47.427Z,18.17
2019-02-27T21:08:02.523Z,20.73
2019-02-27T21:11:16.634Z,14.63
2019-02-27T21:14:30.465Z,16.80
2019-02-27T21:17:44.926Z,17.10
2019-02-27T21:20:58.905Z,15.73
2019-02-27T21:24:12.804Z,17.87
2019-02-27T21:27:28.502Z,17.40
2019-02-27T21:30:42.641Z,16.03
2019-02-27T21:33:56.512Z,17.23
2019-02-27T21:37:10.708Z,15.67
2019-02-27T21:40:25.012Z,22.13
2019-02-27T21:43:40.023Z,18.57
2019-02-27T21:46:54.102Z,16.87
2019-02-27T21:50:11.007Z,16.90
2019-02-27T21:53:26.075Z,22.33
2019-02-27T21:56:40.628Z,20.37
2019-02-27T21:59:54.617Z,18.93
2019-02-27T22:03:08.570Z,18.87
2019-02-27T22:06:24.747Z,18.27
2019-02-27T22:09:38.439Z,18.97
2019-02-27T22:12:52.317Z,16.83
2019-02-27T22:16:06.468Z,16.33
2019-02-27T22:19:20.370Z,12.83
2019-02-27T22:22:34.193Z,13.27
2019-02-27T22:25:48.160Z,16.13
2019-02-27T22:29:02.008Z,15.73
2019-02-27T22:32:15.838Z,10.77
2019-02-27T22:35:30.494Z,13.87
2019-02-27T22:38:44.573Z,10.87
2019-02-27T22:41:58.607Z,12.33
2019-02-27T22:45:14.257Z,10.07
2019-02-27T22:48:28.830Z,13.93
2019-02-27T22:51:44.871Z,12.67
2019-02-27T22:54:58.774Z,13.53
2019-02-27T22:58:12.603Z,10.87
2019-02-27T23:01:29.891Z,11.17
2019-02-27T23:04:43.726Z,14.47
2019-02-27T23:07:57.587Z,17.30
2019-02-27T23:11:11.933Z,12.73
2019-02-27T23:14:25.858Z,12.57
2019-02-27T23:17:39.824Z,14.17
2019-02-27T23:20:55.529Z,14.67
2019-02-27T23:24:10.001Z,15.97
2019-02-27T23:27:26.006Z,13.17
2019-02-27T23:30:43.004Z,13.73
2019-02-27T23:33:56.858Z,13.23
2019-02-27T23:37:10.714Z,14.23
2019-02-27T23:40:24.857Z,14.27
2019-02-27T23:43:38.736Z,14.67
2019-02-27T23:46:57.083Z,12.27
2019-02-27T23:50:11.130Z,13.90
2019-02-27T23:53:27.122Z,12.23
2019-02-27T23:56:41.574Z,13.07
2019-02-27T23:59:55.418Z,14.07
